createdAt,value
2019-05-19T00:00:59.473Z,92.50
2019-05-19T00:03:28.146Z,92.40
2019-05-19T00:05:56.860Z,92.20
2019-05-19T00:08:25.497Z,92.20
2019-05-19T00:10:54.162Z,92.40
2019-05-19T00:13:22.841Z,92.20
2019-05-19T00:15:51.495Z,92.40
2019-05-19T00:18:20.276Z,92.30
2019-05-19T00:20:49.012Z,92.20
2019-05-19T00:23:17.651Z,92.20
2019-05-19T00:25:46.307Z,92.90
2019-05-19T00:28:14.965Z,92.30
2019-05-19T00:30:43.639Z,92.20
2019-05-19T00:33:12.297Z,92.40
2019-05-19T00:35:41.003Z,92.50
2019-05-19T00:38:09.671Z,92.90
2019-05-19T00:40:38.405Z,92.50
2019-05-19T00:43:07.146Z,92.50
2019-05-19T00:45:35.956Z,92.40
2019-05-19T00:48:05.476Z,92.80
2019-05-19T00:50:34.250Z,92.60
2019-05-19T00:53:03.095Z,92.40
2019-05-19T00:55:32.416Z,92.60
2019-05-19T00:58:02.486Z,92.40
2019-05-19T01:00:31.351Z,92.40
2019-05-19T01:03:00.012Z,92.50
2019-05-19T01:05:28.672Z,92.60
2019-05-19T01:07:57.403Z,92.50
2019-05-19T01:10:26.068Z,92.60
2019-05-19T01:12:54.715Z,92.50
2019-05-19T01:15:23.619Z,92.60
2019-05-19T01:17:52.277Z,92.30
2019-05-19T01:20:21.105Z,92.50
2019-05-19T01:22:49.826Z,93.00
2019-05-19T01:25:18.572Z,92.40
2019-05-19T01:27:47.205Z,92.60
2019-05-19T01:30:17.791Z,92.50
2019-05-19T01:32:46.549Z,92.50
2019-05-19T01:35:15.474Z,92.70
2019-05-19T01:37:44.376Z,93.00
2019-05-19T01:40:13.269Z,92.50
2019-05-19T01:42:41.908Z,92.60
2019-05-19T01:45:10.908Z,92.70
2019-05-19T01:47:39.559Z,92.80
2019-05-19T01:50:18.469Z,93.00
2019-05-19T01:52:40.550Z,93.00
2019-05-19T01:55:09.561Z,92.90
2019-05-19T01:57:38.220Z,93.50
2019-05-19T02:00:08.612Z,93.60
2019-05-19T02:02:37.330Z,93.70
2019-05-19T02:05:07.388Z,93.80
2019-05-19T02:07:36.227Z,93.20
2019-05-19T02:10:06.959Z,93.30
2019-05-19T02:12:35.697Z,93.50
2019-05-19T02:15:05.595Z,93.60
2019-05-19T02:17:34.311Z,93.90
2019-05-19T02:20:03.214Z,94.10
2019-05-19T02:22:31.876Z,94.40
2019-05-19T02:25:00.563Z,94.50
2019-05-19T02:27:29.290Z,95.10
2019-05-19T02:29:57.949Z,95.00
2019-05-19T02:32:26.614Z,95.30
2019-05-19T02:34:55.273Z,95.40
2019-05-19T02:37:23.928Z,95.50
2019-05-19T02:39:52.579Z,95.50
2019-05-19T02:42:22.296Z,95.50
2019-05-19T02:44:52.517Z,95.70
2019-05-19T02:47:23.013Z,95.70
2019-05-19T02:49:54.308Z,95.80
2019-05-19T02:52:23.451Z,96.00
2019-05-19T02:54:52.605Z,96.20
2019-05-19T02:57:21.723Z,96.20
2019-05-19T02:59:50.607Z,96.30
2019-05-19T03:02:19.285Z,96.40
2019-05-19T03:04:47.955Z,96.40
2019-05-19T03:07:16.697Z,96.50
2019-05-19T03:09:45.351Z,97.00
2019-05-19T03:12:14.017Z,97.40
2019-05-19T03:14:42.727Z,96.50
2019-05-19T03:17:11.411Z,96.50
2019-05-19T03:19:40.184Z,95.90
2019-05-19T03:22:08.833Z,96.00
2019-05-19T03:24:37.498Z,96.00
2019-05-19T03:27:06.177Z,95.40
2019-05-19T03:29:36.484Z,95.70
2019-05-19T03:32:13.376Z,95.40
2019-05-19T03:34:42.342Z,95.50
2019-05-19T03:37:10.993Z,95.60
2019-05-19T03:39:39.707Z,95.50
2019-05-19T03:42:10.496Z,95.70
2019-05-19T03:44:38.721Z,95.60
2019-05-19T03:47:07.376Z,95.80
2019-05-19T03:49:36.085Z,95.60
2019-05-19T03:52:04.876Z,95.30
2019-05-19T03:54:33.616Z,95.50
2019-05-19T03:57:02.528Z,95.60
2019-05-19T03:59:31.276Z,95.10
2019-05-19T04:02:00.006Z,96.20
2019-05-19T04:04:28.649Z,96.40
2019-05-19T04:06:57.327Z,96.80
2019-05-19T04:09:26.350Z,96.50
2019-05-19T04:11:55.040Z,97.20
2019-05-19T04:14:23.710Z,98.10
2019-05-19T04:16:52.428Z,97.90
2019-05-19T04:19:21.118Z,98.10
2019-05-19T04:21:49.923Z,98.50
2019-05-19T04:24:18.652Z,98.20
2019-05-19T04:26:47.320Z,97.80
2019-05-19T04:29:16.049Z,97.40
2019-05-19T04:31:44.728Z,97.50
2019-05-19T04:34:13.370Z,97.50
2019-05-19T04:36:42.018Z,97.20
2019-05-19T04:39:10.689Z,97.00
2019-05-19T04:41:40.487Z,96.80
2019-05-19T04:44:09.310Z,96.70
2019-05-19T04:46:38.029Z,96.70
2019-05-19T04:49:06.758Z,96.60
2019-05-19T04:51:35.405Z,96.10
2019-05-19T04:54:04.140Z,96.80
2019-05-19T04:56:52.143Z,96.10
2019-05-19T04:59:20.857Z,96.30
2019-05-19T05:01:49.536Z,96.10
2019-05-19T05:04:18.263Z,95.50
2019-05-19T05:06:46.956Z,95.00
2019-05-19T05:09:15.602Z,95.10
2019-05-19T05:11:44.513Z,95.30
2019-05-19T05:14:13.172Z,95.00
2019-05-19T05:16:41.938Z,94.40
2019-05-19T05:19:10.711Z,94.10
2019-05-19T05:21:40.935Z,94.50
2019-05-19T05:24:09.798Z,94.10
2019-05-19T05:26:38.500Z,94.30
2019-05-19T05:29:07.337Z,94.30
2019-05-19T05:31:36.105Z,94.90
2019-05-19T05:34:04.889Z,94.30
2019-05-19T05:36:33.710Z,94.30
2019-05-19T05:39:02.455Z,94.50
2019-05-19T05:41:34.300Z,95.00
2019-05-19T05:44:03.094Z,94.90
2019-05-19T05:46:31.753Z,94.90
2019-05-19T05:49:00.478Z,94.90
2019-05-19T05:51:30.458Z,94.60
2019-05-19T05:53:59.102Z,94.30
2019-05-19T05:56:27.859Z,94.30
2019-05-19T05:58:56.555Z,93.90
2019-05-19T06:01:25.496Z,94.20
2019-05-19T06:03:54.133Z,94.10
2019-05-19T06:06:22.876Z,93.70
2019-05-19T06:08:54.482Z,93.60
2019-05-19T06:11:25.704Z,93.80
2019-05-19T06:13:54.584Z,93.00
2019-05-19T06:16:23.401Z,93.20
2019-05-19T06:18:52.079Z,93.10
2019-05-19T06:21:24.981Z,93.00
2019-05-19T06:23:53.878Z,92.90
2019-05-19T06:26:22.529Z,93.50
2019-05-19T06:28:51.273Z,93.50
2019-05-19T06:31:19.962Z,93.30
2019-05-19T06:33:48.646Z,93.40
2019-05-19T06:36:17.456Z,93.40
2019-05-19T06:38:46.195Z,93.50
2019-05-19T06:41:14.931Z,93.20
2019-05-19T06:43:43.739Z,93.20
2019-05-19T06:46:12.423Z,93.40
2019-05-19T06:48:41.086Z,93.10
2019-05-19T06:51:12.728Z,92.90
2019-05-19T06:53:41.491Z,93.10
2019-05-19T06:56:14.768Z,93.30
2019-05-19T06:58:45.097Z,93.50
2019-05-19T07:01:24.663Z,94.00
2019-05-19T07:03:53.535Z,94.50
2019-05-19T07:06:23.838Z,94.70
2019-05-19T07:08:52.572Z,94.70
2019-05-19T07:11:21.364Z,95.30
2019-05-19T07:13:50.162Z,94.70
2019-05-19T07:16:18.933Z,95.00
2019-05-19T07:18:47.602Z,95.40
2019-05-19T07:21:16.459Z,95.00
2019-05-19T07:23:45.187Z,95.30
2019-05-19T07:26:14.927Z,95.70
2019-05-19T07:28:43.637Z,95.70
2019-05-19T07:31:12.477Z,95.80
2019-05-19T07:33:41.302Z,95.80
2019-05-19T07:36:10.427Z,96.20
2019-05-19T07:38:39.148Z,96.40
2019-05-19T07:41:07.841Z,95.90
2019-05-19T07:43:36.678Z,95.70
2019-05-19T07:46:05.512Z,95.50
2019-05-19T07:48:34.148Z,95.60
2019-05-19T07:51:03.015Z,95.30
2019-05-19T07:53:42.662Z,95.20
2019-05-19T07:56:02.255Z,95.00
2019-05-19T07:58:30.990Z,95.00
2019-05-19T08:00:59.743Z,95.20
2019-05-19T08:03:33.632Z,94.90
2019-05-19T08:06:01.562Z,94.80
2019-05-19T08:08:31.888Z,94.80
2019-05-19T08:11:00.762Z,94.40
2019-05-19T08:13:29.430Z,94.50
2019-05-19T08:15:58.165Z,94.60
2019-05-19T08:18:30.011Z,94.70
2019-05-19T08:20:58.717Z,95.20
2019-05-19T08:23:33.656Z,95.50
2019-05-19T08:26:02.428Z,95.50
2019-05-19T08:28:31.254Z,95.20
2019-05-19T08:31:02.002Z,94.90
2019-05-19T08:33:30.791Z,94.90
2019-05-19T08:35:59.500Z,95.00
2019-05-19T08:38:28.195Z,94.90
2019-05-19T08:40:57.082Z,94.50
2019-05-19T08:43:25.767Z,95.50
2019-05-19T08:45:54.981Z,95.30
2019-05-19T08:48:26.668Z,95.20
2019-05-19T08:51:01.270Z,95.30
2019-05-19T08:53:31.568Z,95.40
2019-05-19T08:56:00.416Z,95.10
2019-05-19T08:58:29.636Z,94.90
2019-05-19T09:00:58.395Z,95.10
2019-05-19T09:03:29.022Z,95.10
2019-05-19T09:06:00.813Z,95.10
2019-05-19T09:08:29.794Z,95.40
2019-05-19T09:10:58.695Z,94.90
2019-05-19T09:13:27.698Z,94.60
2019-05-19T09:15:59.489Z,94.50
2019-05-19T09:18:28.645Z,93.70
2019-05-19T09:20:57.428Z,94.40
2019-05-19T09:23:26.334Z,94.60
2019-05-19T09:25:55.154Z,94.50
2019-05-19T09:28:23.864Z,94.80
2019-05-19T09:30:52.662Z,94.30
2019-05-19T09:33:21.352Z,94.50
2019-05-19T09:35:52.745Z,93.70
2019-05-19T09:38:21.449Z,94.00
2019-05-19T09:40:51.988Z,93.70
2019-05-19T09:43:20.668Z,94.20
2019-05-19T09:45:49.379Z,94.10
2019-05-19T09:48:19.254Z,94.00
2019-05-19T09:50:47.938Z,94.30
2019-05-19T09:53:16.685Z,94.30
2019-05-19T09:55:50.243Z,94.20
2019-05-19T09:58:20.175Z,94.70
2019-05-19T10:00:49.593Z,95.10
2019-05-19T10:03:24.407Z,96.00
2019-05-19T10:05:55.579Z,96.10
2019-05-19T10:08:32.695Z,95.90
2019-05-19T10:11:33.355Z,96.30
2019-05-19T10:14:02.241Z,96.40
2019-05-19T10:16:31.025Z,96.40
2019-05-19T10:19:00.079Z,96.80
2019-05-19T10:21:30.300Z,97.10
2019-05-19T10:23:58.987Z,96.80
2019-05-19T10:26:27.840Z,97.00
2019-05-19T10:28:58.362Z,96.90
2019-05-19T10:31:27.131Z,96.90
2019-05-19T10:33:55.913Z,96.60
2019-05-19T10:36:27.754Z,96.80
2019-05-19T10:38:56.642Z,96.60
2019-05-19T10:41:25.558Z,95.90
2019-05-19T10:44:00.853Z,95.70
2019-05-19T10:46:30.339Z,96.10
2019-05-19T10:48:59.055Z,95.90
2019-05-19T10:51:27.885Z,96.20
2019-05-19T10:53:56.679Z,95.40
2019-05-19T10:56:25.395Z,95.50
2019-05-19T10:58:54.063Z,95.10
2019-05-19T11:01:22.743Z,95.00
2019-05-19T11:03:52.207Z,95.00
2019-05-19T11:06:21.028Z,94.90
2019-05-19T11:08:49.851Z,94.60
2019-05-19T11:11:18.719Z,94.90
2019-05-19T11:13:47.378Z,94.90
2019-05-19T11:16:16.062Z,95.30
2019-05-19T11:18:44.763Z,95.10
2019-05-19T11:21:13.456Z,94.70
2019-05-19T11:23:45.163Z,94.90
2019-05-19T11:26:13.832Z,94.50
2019-05-19T11:28:42.648Z,95.30
2019-05-19T11:31:11.299Z,95.30
2019-05-19T11:33:40.006Z,95.40
2019-05-19T11:36:08.725Z,95.40
2019-05-19T11:38:37.461Z,94.80
2019-05-19T11:41:06.199Z,95.10
2019-05-19T11:43:34.916Z,94.90
2019-05-19T11:46:03.797Z,95.50
2019-05-19T11:48:32.543Z,94.90
2019-05-19T11:51:01.209Z,95.00
2019-05-19T11:53:29.928Z,95.30
2019-05-19T11:56:06.587Z,95.20
2019-05-19T11:58:29.053Z,95.60
2019-05-19T12:00:57.741Z,95.30
2019-05-19T12:03:28.094Z,96.30
2019-05-19T12:05:56.820Z,95.70
2019-05-19T12:08:25.477Z,96.00
2019-05-19T12:10:54.252Z,95.40
2019-05-19T12:13:23.035Z,95.10
2019-05-19T12:15:51.913Z,95.40
2019-05-19T12:18:20.663Z,95.50
2019-05-19T12:20:49.312Z,95.40
2019-05-19T12:23:17.970Z,95.60
2019-05-19T12:25:48.155Z,94.90
2019-05-19T12:28:16.843Z,94.80
2019-05-19T12:30:45.658Z,94.90
2019-05-19T12:33:14.405Z,95.70
2019-05-19T12:35:43.133Z,95.50
2019-05-19T12:38:11.868Z,95.10
2019-05-19T12:40:41.056Z,94.50
2019-05-19T12:43:09.937Z,94.40
2019-05-19T12:45:38.731Z,94.80
2019-05-19T12:48:07.525Z,94.10
2019-05-19T12:50:36.320Z,94.90
2019-05-19T12:53:06.595Z,94.90
2019-05-19T12:55:36.879Z,95.40
2019-05-19T12:58:05.655Z,95.80
2019-05-19T13:00:34.488Z,95.90
2019-05-19T13:03:03.148Z,96.00
2019-05-19T13:05:31.874Z,96.00
2019-05-19T13:08:00.543Z,96.00
2019-05-19T13:10:29.231Z,95.80
2019-05-19T13:12:59.649Z,95.90
2019-05-19T13:15:28.406Z,96.30
2019-05-19T13:17:57.092Z,96.60
2019-05-19T13:20:28.675Z,96.80
2019-05-19T13:22:57.401Z,96.70
2019-05-19T13:25:26.126Z,96.40
2019-05-19T13:27:54.855Z,95.80
2019-05-19T13:30:23.659Z,95.80
2019-05-19T13:32:52.492Z,96.30
2019-05-19T13:35:21.269Z,96.00
2019-05-19T13:37:49.979Z,95.70
2019-05-19T13:40:19.233Z,95.40
2019-05-19T13:42:48.003Z,94.10
2019-05-19T13:45:16.778Z,94.40
2019-05-19T13:47:45.489Z,94.50
2019-05-19T13:50:14.255Z,94.20
2019-05-19T13:52:45.104Z,94.30
2019-05-19T13:55:13.979Z,94.00
2019-05-19T13:57:42.680Z,94.40
2019-05-19T14:00:11.947Z,93.10
2019-05-19T14:02:40.722Z,94.00
2019-05-19T14:05:09.629Z,94.00
2019-05-19T14:07:38.497Z,93.30
2019-05-19T14:10:08.383Z,92.80
2019-05-19T14:12:37.133Z,92.50
2019-05-19T14:15:07.240Z,93.00
2019-05-19T14:17:35.929Z,92.20
2019-05-19T14:20:08.031Z,92.40
2019-05-19T14:22:38.305Z,92.50
2019-05-19T14:25:07.201Z,93.30
2019-05-19T14:27:35.927Z,92.80
2019-05-19T14:30:07.119Z,93.50
2019-05-19T14:32:37.546Z,93.00
2019-05-19T14:35:07.395Z,93.00
2019-05-19T14:37:36.220Z,93.00
2019-05-19T14:40:11.360Z,92.30
2019-05-19T14:42:51.846Z,92.20
2019-05-19T14:45:26.047Z,91.80
2019-05-19T14:47:54.874Z,91.60
2019-05-19T14:50:23.992Z,91.00
2019-05-19T14:52:52.718Z,91.00
2019-05-19T14:55:21.859Z,91.60
2019-05-19T14:57:50.635Z,90.60
2019-05-19T15:00:20.922Z,91.20
2019-05-19T15:02:53.106Z,90.90
2019-05-19T15:05:22.009Z,91.30
2019-05-19T15:07:50.676Z,90.80
2019-05-19T15:10:20.231Z,90.60
2019-05-19T15:12:48.984Z,90.40
2019-05-19T15:15:20.872Z,90.50
2019-05-19T15:17:49.613Z,91.60
2019-05-19T15:20:18.537Z,91.00
2019-05-19T15:22:50.370Z,91.90
2019-05-19T15:25:19.125Z,92.00
2019-05-19T15:27:59.268Z,92.00
2019-05-19T15:30:18.617Z,92.00
2019-05-19T15:32:47.374Z,93.00
2019-05-19T15:35:20.633Z,92.20
2019-05-19T15:37:49.481Z,92.60
2019-05-19T15:40:18.330Z,92.60
2019-05-19T15:42:47.087Z,92.90
2019-05-19T15:45:16.059Z,92.40
2019-05-19T15:47:46.388Z,93.30
2019-05-19T15:50:15.242Z,92.70
2019-05-19T15:52:44.467Z,92.30
2019-05-19T15:55:13.259Z,93.10
2019-05-19T15:57:43.577Z,92.90
2019-05-19T16:00:12.750Z,92.80
2019-05-19T16:02:41.632Z,93.30
2019-05-19T16:05:10.405Z,91.90
2019-05-19T16:07:40.762Z,92.50
2019-05-19T16:10:09.740Z,92.60
2019-05-19T16:12:38.702Z,93.20
2019-05-19T16:15:08.995Z,93.60
2019-05-19T16:17:37.728Z,92.70
2019-05-19T16:20:08.259Z,92.60
2019-05-19T16:22:37.022Z,93.50
2019-05-19T16:25:06.942Z,93.10
2019-05-19T16:27:35.817Z,93.30
2019-05-19T16:30:06.432Z,93.10
2019-05-19T16:32:35.077Z,93.30
2019-05-19T16:35:04.475Z,93.70
2019-05-19T16:37:33.210Z,94.10
2019-05-19T16:40:01.953Z,94.70
2019-05-19T16:42:30.626Z,94.00
2019-05-19T16:44:59.317Z,93.90
2019-05-19T16:47:28.049Z,93.70
2019-05-19T16:49:56.774Z,93.80
2019-05-19T16:52:25.530Z,93.60
2019-05-19T16:55:12.041Z,94.00
2019-05-19T16:57:40.852Z,94.20
2019-05-19T17:00:09.756Z,94.00
2019-05-19T17:02:38.498Z,93.90
2019-05-19T17:05:07.716Z,93.80
2019-05-19T17:07:36.439Z,93.50
2019-05-19T17:10:08.360Z,93.80
2019-05-19T17:12:37.188Z,93.60
2019-05-19T17:15:07.061Z,94.30
2019-05-19T17:17:35.961Z,94.50
2019-05-19T17:20:07.928Z,94.60
2019-05-19T17:22:36.641Z,95.00
2019-05-19T17:25:08.443Z,95.50
2019-05-19T17:27:37.116Z,95.90
2019-05-19T17:30:08.092Z,95.70
2019-05-19T17:32:36.751Z,95.60
2019-05-19T17:35:06.455Z,95.30
2019-05-19T17:37:35.250Z,95.70
2019-05-19T17:40:04.914Z,96.10
2019-05-19T17:42:37.022Z,96.30
2019-05-19T17:45:05.585Z,96.90
2019-05-19T17:47:34.421Z,96.90
2019-05-19T17:50:03.235Z,97.20
2019-05-19T17:52:32.065Z,97.00
2019-05-19T17:55:00.777Z,97.40
2019-05-19T17:57:31.182Z,97.30
2019-05-19T18:00:01.705Z,97.20
2019-05-19T18:02:30.446Z,96.90
2019-05-19T18:04:59.136Z,96.40
2019-05-19T18:07:27.935Z,96.60
2019-05-19T18:09:56.567Z,96.80
2019-05-19T18:12:25.566Z,96.70
2019-05-19T18:14:54.320Z,97.30
2019-05-19T18:17:22.955Z,96.70
2019-05-19T18:19:51.899Z,96.80
2019-05-19T18:22:20.566Z,96.90
2019-05-19T18:24:49.226Z,97.20
2019-05-19T18:27:17.886Z,97.90
2019-05-19T18:29:46.793Z,97.70
2019-05-19T18:32:15.585Z,98.00
2019-05-19T18:34:44.249Z,98.60
2019-05-19T18:37:13.519Z,97.90
2019-05-19T18:39:42.502Z,97.60
2019-05-19T18:42:11.349Z,97.90
2019-05-19T18:44:40.021Z,98.20
2019-05-19T18:47:08.834Z,98.00
2019-05-19T18:49:37.578Z,97.90
2019-05-19T18:52:06.248Z,97.80
2019-05-19T18:54:35.054Z,97.80
2019-05-19T18:57:03.832Z,98.20
2019-05-19T18:59:46.568Z,98.70
2019-05-19T19:02:03.110Z,99.10
2019-05-19T19:04:31.857Z,99.40
2019-05-19T19:07:00.583Z,99.20
2019-05-19T19:09:29.285Z,99.20
2019-05-19T19:11:58.025Z,99.30
2019-05-19T19:14:27.704Z,99.90
2019-05-19T19:16:56.623Z,99.90
2019-05-19T19:19:25.310Z,99.60
2019-05-19T19:21:55.671Z,99.40
2019-05-19T19:24:24.319Z,99.30
2019-05-19T19:26:53.081Z,99.70
2019-05-19T19:29:21.920Z,99.40
2019-05-19T19:31:50.660Z,99.30
2019-05-19T19:34:19.401Z,99.10
2019-05-19T19:36:48.211Z,98.60
2019-05-19T19:39:16.864Z,99.40
2019-05-19T19:41:45.541Z,99.80
2019-05-19T19:44:14.349Z,99.40
2019-05-19T19:46:43.019Z,99.50
2019-05-19T19:49:11.762Z,99.90
2019-05-19T19:51:40.525Z,99.60
2019-05-19T19:54:09.280Z,99.70
2019-05-19T19:56:37.988Z,99.50
2019-05-19T19:59:06.801Z,99.30
2019-05-19T20:01:37.166Z,99.10
2019-05-19T20:04:05.974Z,99.10
2019-05-19T20:06:34.804Z,99.40
2019-05-19T20:09:04.812Z,99.30
2019-05-19T20:11:33.635Z,99.60
2019-05-19T20:14:02.350Z,99.70
2019-05-19T20:16:31.018Z,99.40
2019-05-19T20:18:59.889Z,99.50
2019-05-19T20:21:28.715Z,99.30
2019-05-19T20:23:57.517Z,99.10
2019-05-19T20:26:26.430Z,99.10
2019-05-19T20:28:57.882Z,99.30
2019-05-19T20:31:28.217Z,99.50
2019-05-19T20:33:56.894Z,99.20
2019-05-19T20:36:25.654Z,99.20
2019-05-19T20:38:55.063Z,99.20
2019-05-19T20:41:23.837Z,99.10
2019-05-19T20:43:52.818Z,99.00
2019-05-19T20:46:21.566Z,99.20
2019-05-19T20:48:50.269Z,99.00
2019-05-19T20:51:18.921Z,99.10
2019-05-19T20:53:47.671Z,99.10
2019-05-19T20:56:16.599Z,98.80
2019-05-19T20:58:49.185Z,99.00
2019-05-19T21:01:18.157Z,98.50
2019-05-19T21:03:47.066Z,98.70
2019-05-19T21:06:15.717Z,98.70
2019-05-19T21:08:44.451Z,98.70
2019-05-19T21:11:13.218Z,98.80
2019-05-19T21:13:41.970Z,98.60
2019-05-19T21:16:10.685Z,98.90
2019-05-19T21:18:39.408Z,99.00
2019-05-19T21:21:08.088Z,99.30
2019-05-19T21:23:36.770Z,99.50
2019-05-19T21:26:05.431Z,99.20
2019-05-19T21:28:34.142Z,99.00
2019-05-19T21:31:05.763Z,99.10
2019-05-19T21:33:33.114Z,99.20
2019-05-19T21:36:01.786Z,98.80
2019-05-19T21:38:30.452Z,99.30
2019-05-19T21:40:59.148Z,99.40
2019-05-19T21:43:28.043Z,99.40
2019-05-19T21:45:56.949Z,99.50
2019-05-19T21:48:33.008Z,99.10
2019-05-19T21:51:02.378Z,99.00
2019-05-19T21:53:31.253Z,99.20
2019-05-19T21:55:59.922Z,98.80
2019-05-19T21:58:28.603Z,98.40
2019-05-19T22:00:57.343Z,98.40
2019-05-19T22:03:26.078Z,98.50
2019-05-19T22:05:54.735Z,98.30
2019-05-19T22:08:23.539Z,98.60
2019-05-19T22:10:52.196Z,98.80
2019-05-19T22:13:20.991Z,98.80
2019-05-19T22:15:49.713Z,99.00
2019-05-19T22:18:18.619Z,99.10
2019-05-19T22:20:47.447Z,99.10
2019-05-19T22:23:16.419Z,99.40
2019-05-19T22:25:45.157Z,99.40
2019-05-19T22:28:13.866Z,99.30
2019-05-19T22:30:42.627Z,99.40
2019-05-19T22:33:11.391Z,99.10
2019-05-19T22:35:40.523Z,99.50
2019-05-19T22:38:09.742Z,99.70
2019-05-19T22:40:38.625Z,99.90
2019-05-19T22:43:07.342Z,99.90
2019-05-19T22:45:36.092Z,99.90
2019-05-19T22:48:04.829Z,99.90
2019-05-19T22:50:33.485Z,99.90
2019-05-19T22:53:02.254Z,99.90
2019-05-19T22:55:31.157Z,99.90
2019-05-19T22:57:59.914Z,99.90
2019-05-19T23:00:30.157Z,99.90
2019-05-19T23:02:58.917Z,99.90
2019-05-19T23:05:27.630Z,99.90
2019-05-19T23:07:56.523Z,99.90
2019-05-19T23:10:28.594Z,99.90
2019-05-19T23:12:57.490Z,99.90
2019-05-19T23:15:26.214Z,99.90
2019-05-19T23:17:55.124Z,99.90
2019-05-19T23:20:23.863Z,99.90
2019-05-19T23:22:52.876Z,99.90
2019-05-19T23:25:21.743Z,99.90
2019-05-19T23:27:50.585Z,99.90
2019-05-19T23:30:19.232Z,99.80
2019-05-19T23:32:47.981Z,99.90
2019-05-19T23:35:16.928Z,99.90
2019-05-19T23:37:45.614Z,99.90
2019-05-19T23:40:14.419Z,99.90
2019-05-19T23:42:43.200Z,99.90
2019-05-19T23:45:12.209Z,99.90
2019-05-19T23:47:40.991Z,99.90
2019-05-19T23:50:10.330Z,99.90
2019-05-19T23:52:41.489Z,99.90
2019-05-19T23:55:10.387Z,99.90
2019-05-19T23:57:45.098Z,99.90
